Andrews Air Force Base
KADW : now visible

Airfield :











YOU CAN JOIN US ON...

 
LOGIN :

Register | Disclaimer

   EN    FR    IT 

 









Legend :    VFR   Marginal VFR   IFR   Intensive IFR   Very Intensive IFR
Visi :
Ceiling :
>= 8 km
>= 3000ft
5 to 8 km
1000 to 3000 ft
1500m to 5 km
500 to 1000 ft
800 to 1500m
200 to 500 ft
< 800m
< 200 ft
Symbols :   Thunderstorms  Fog  Heavy snow  Heavy precipitations  Wind > 20 kt






- Airport Elevation : 280 ft


KADW - Andrews Air Force Base

CURRENT METAR :
  • 130456Z AUTO 03004KT 10SM CLR 22/22 A3005 RMK AO2 SLP180 T02220222 403180222 $

EXPIRED METARs :
  • 130356Z AUTO 00000KT 10SM CLR 23/22 A3006 RMK AO2 SLP183 T02250221 $
  • 130256Z AUTO 04004KT 10SM CLR 23/22 A3005 RMK AO2 SLP180 T02290224 53001 $

TAF AMD TAF KADW
Valid from the 13 at 01:00 until the 14 at 07:00 UTC


130115Z 1301/1407 16007KT 9999 VCSH BKN090 BKN120 QNH2998INS
BECMG 1302/1303 14009KT 9999 NSW BKN020 BKN080 QNH3004INS
BECMG 1303/1304 VRB06KT 6000 BR BKN020 OVC090 QNH3006INS
BECMG 1305/1306 13006KT 4800 BR BKN010 BKN020 QNH3009INS
BECMG 1310/1311 08009KT 9000 -SHRA BKN005 BKN010 BKN250 QNH3004INS
BECMG 1312/1313 06008KT 8000 -SHRA VCTS BKN020CB OVC100 QNH3007INS
TEMPO 1313/1316 VRB10G20KT -TSRA
BECMG 1315/1316 06009KT 9000 -SHRA VCTS BKN010CB BKN020 OVC140 QNH3002INS TX27/1314Z TN24/1310Z
KZDC FIR / North America



MET'MAP, your aeronautical weather chart ! - Copyright ORBIFLY December 2007 - Disclaimer

ORBIFLY MET'MAP TEAM :

Programming & Development : Alexandra Zaïnal
Concept & original design : Baudouin d'Aumeries
Assistance for programming : Marc-Olivier Méhu
Technical & hardware support : Manuel Goepfert

Contact : metmap@orbifly.com




SOURCES & CREDITS :

   NOAA       Earth
Advisory